Disclaimer

Please do not use the information listed here in-flight or in-navigation, as they are not provided to us by the airports but are provided by volunteers, so they might be outdated.

Search


Regions


Airport information page

Radio informations:
RAPCON WEST - 123.575 MHz

Airport informations:
Latitude: 51° 34' 02.60" N
Longitude: 004° 55' 54.60" E
Elevation: 49 feet - 15 meters
Operating hours: Remarks
Operating agency: Military
Timezone: UTC+1(+2DT) - Last Sunday in March to last Sunday in October
Fuel: N/A

Runway information:
02/20 - 6549 x 98 feet< - >1996 x 30 meters
10/28 - 9118 x 148 feet< - >2779 x 45 meters

Recent METARs:
EHGR 191955Z AUTO 06014KT 010V100 9999 BKN021 OVC025 04/01 Q1015 WHT 05014G24KT 9999 FEW027 SCT035 BKN045
EHGR 192025Z AUTO 06014G25KT 360V110 9999 FEW024 BKN028 OVC032 04/00 Q1015 BLU 05014G24KT 9999 FEW027 SCT035 BKN045
EHGR 192055Z AUTO 06015KT 020V100 9999 FEW027 04/00 Q1015 BLU 05014G24KT 9999 FEW027 SCT035 BKN045

Airport on the map: